LKE weather

Kenmore Air Harbor Seaplane Base
Seattle, Washington, United States

Public forecast

Using degrees Fahrenheit for public forecast. Weather courtesy of forecast.io.

Closest aviation weather report (METAR) to Kenmore Air Harbor Seaplane Base

Closest report is Boeing Field King County International Airport, 6.1 nm (11.4 km) SSE. Retrieved 2019/10/15 17:53 UTC (14 minutes ago):

KBFI 151753Z 14007KT 10SM SCT120 BKN200 14/07 A3000 RMK AO2 SLP160 T01390072 10139 20072 53019

Closest aviation forecast (TAF) to Kenmore Air Harbor Seaplane Base

Closest forecast is Boeing Field King County International Airport, 6.1 nm (11.4 km) SSE. Retrieved 2019/10/15 18:33 UTC (0 seconds ago):

TAF KBFI 151731Z 1518/1618 14008KT P6SM SCT120 OVC200 FM160000 15008KT P6SM VCSH OVC050 FM160500 15004KT P6SM -RA OVC050